sensor_id;sensor_type;location;lat;lon;timestamp;P1;durP1;ratioP1;P2;durP2;ratioP2
13592;SDS011;6867;50.998;4.250;2023-07-28T00:00:20;10.07;;;5.63;;
13592;SDS011;6867;50.998;4.250;2023-07-28T00:02:46;8.40;;;5.18;;
13592;SDS011;6867;50.998;4.250;2023-07-28T00:05:13;5.43;;;4.68;;
13592;SDS011;6867;50.998;4.250;2023-07-28T00:07:40;10.50;;;5.80;;
13592;SDS011;6867;50.998;4.250;2023-07-28T00:10:06;10.40;;;5.40;;
13592;SDS011;6867;50.998;4.250;2023-07-28T00:12:33;10.52;;;4.90;;
13592;SDS011;6867;50.998;4.250;2023-07-28T00:15:02;6.32;;;5.00;;
13592;SDS011;6867;50.998;4.250;2023-07-28T00:17:29;8.27;;;5.13;;
13592;SDS011;6867;50.998;4.250;2023-07-28T00:19:55;6.53;;;4.57;;
13592;SDS011;6867;50.998;4.250;2023-07-28T00:22:22;6.60;;;4.80;;
13592;SDS011;6867;50.998;4.250;2023-07-28T00:24:48;9.57;;;4.75;;
13592;SDS011;6867;50.998;4.250;2023-07-28T00:27:15;8.40;;;4.40;;
13592;SDS011;6867;50.998;4.250;2023-07-28T00:29:42;8.90;;;4.47;;
13592;SDS011;6867;50.998;4.250;2023-07-28T00:32:10;8.30;;;4.55;;
13592;SDS011;6867;50.998;4.250;2023-07-28T00:34:36;5.20;;;3.95;;
13592;SDS011;6867;50.998;4.250;2023-07-28T00:37:03;5.57;;;4.22;;
13592;SDS011;6867;50.998;4.250;2023-07-28T00:39:30;7.65;;;4.70;;
13592;SDS011;6867;50.998;4.250;2023-07-28T00:41:57;6.10;;;4.45;;
13592;SDS011;6867;50.998;4.250;2023-07-28T00:44:23;7.57;;;4.82;;
13592;SDS011;6867;50.998;4.250;2023-07-28T00:46:50;7.68;;;5.00;;
13592;SDS011;6867;50.998;4.250;2023-07-28T00:49:18;7.20;;;4.47;;
13592;SDS011;6867;50.998;4.250;2023-07-28T00:51:45;7.70;;;4.72;;
13592;SDS011;6867;50.998;4.250;2023-07-28T00:54:12;7.43;;;4.93;;
13592;SDS011;6867;50.998;4.250;2023-07-28T00:56:40;6.20;;;4.35;;
13592;SDS011;6867;50.998;4.250;2023-07-28T00:59:06;6.50;;;4.50;;
13592;SDS011;6867;50.998;4.250;2023-07-28T01:01:33;5.05;;;4.55;;
13592;SDS011;6867;50.998;4.250;2023-07-28T01:04:00;5.88;;;4.30;;
13592;SDS011;6867;50.998;4.250;2023-07-28T01:06:29;5.47;;;4.05;;
13592;SDS011;6867;50.998;4.250;2023-07-28T01:09:09;5.03;;;3.92;;
13592;SDS011;6867;50.998;4.250;2023-07-28T01:11:50;7.28;;;3.83;;
13592;SDS011;6867;50.998;4.250;2023-07-28T01:14:19;5.00;;;3.33;;
13592;SDS011;6867;50.998;4.250;2023-07-28T01:16:45;5.75;;;3.70;;
13592;SDS011;6867;50.998;4.250;2023-07-28T01:19:12;4.72;;;3.53;;
13592;SDS011;6867;50.998;4.250;2023-07-28T01:21:44;5.85;;;3.53;;
13592;SDS011;6867;50.998;4.250;2023-07-28T01:24:15;5.68;;;3.80;;
13592;SDS011;6867;50.998;4.250;2023-07-28T01:26:49;5.50;;;3.50;;
13592;SDS011;6867;50.998;4.250;2023-07-28T01:29:17;4.05;;;3.65;;
13592;SDS011;6867;50.998;4.250;2023-07-28T01:31:45;4.60;;;3.17;;
13592;SDS011;6867;50.998;4.250;2023-07-28T01:34:14;5.72;;;4.07;;
13592;SDS011;6867;50.998;4.250;2023-07-28T01:36:41;4.20;;;3.47;;
13592;SDS011;6867;50.998;4.250;2023-07-28T01:39:07;5.45;;;3.58;;
13592;SDS011;6867;50.998;4.250;2023-07-28T01:41:34;5.93;;;3.63;;
13592;SDS011;6867;50.998;4.250;2023-07-28T01:44:03;5.30;;;3.47;;
13592;SDS011;6867;50.998;4.250;2023-07-28T01:46:30;4.03;;;3.40;;
13592;SDS011;6867;50.998;4.250;2023-07-28T01:48:56;5.43;;;4.13;;
13592;SDS011;6867;50.998;4.250;2023-07-28T01:51:23;4.82;;;3.38;;
13592;SDS011;6867;50.998;4.250;2023-07-28T01:53:49;3.63;;;3.20;;
13592;SDS011;6867;50.998;4.250;2023-07-28T01:56:16;4.53;;;3.50;;
13592;SDS011;6867;50.998;4.250;2023-07-28T01:58:43;7.95;;;3.92;;
13592;SDS011;6867;50.998;4.250;2023-07-28T02:01:11;5.50;;;3.05;;
13592;SDS011;6867;50.998;4.250;2023-07-28T02:03:38;4.68;;;3.00;;
13592;SDS011;6867;50.998;4.250;2023-07-28T02:06:05;4.68;;;3.63;;
13592;SDS011;6867;50.998;4.250;2023-07-28T02:08:32;7.63;;;3.90;;
13592;SDS011;6867;50.998;4.250;2023-07-28T02:10:58;5.93;;;3.15;;
13592;SDS011;6867;50.998;4.250;2023-07-28T02:13:25;4.22;;;3.17;;
13592;SDS011;6867;50.998;4.250;2023-07-28T02:15:51;3.33;;;2.67;;
13592;SDS011;6867;50.998;4.250;2023-07-28T02:18:19;4.32;;;2.83;;
13592;SDS011;6867;50.998;4.250;2023-07-28T02:20:47;4.13;;;2.80;;
13592;SDS011;6867;50.998;4.250;2023-07-28T02:23:14;7.40;;;3.30;;
13592;SDS011;6867;50.998;4.250;2023-07-28T02:25:40;3.95;;;3.15;;
13592;SDS011;6867;50.998;4.250;2023-07-28T02:28:08;4.38;;;3.08;;
13592;SDS011;6867;50.998;4.250;2023-07-28T02:30:35;5.60;;;3.33;;
13592;SDS011;6867;50.998;4.250;2023-07-28T02:33:02;4.60;;;3.53;;
13592;SDS011;6867;50.998;4.250;2023-07-28T02:35:30;6.32;;;3.50;;
13592;SDS011;6867;50.998;4.250;2023-07-28T02:37:57;10.32;;;4.05;;
13592;SDS011;6867;50.998;4.250;2023-07-28T02:40:23;5.82;;;4.13;;
13592;SDS011;6867;50.998;4.250;2023-07-28T02:42:50;4.70;;;3.45;;
13592;SDS011;6867;50.998;4.250;2023-07-28T02:45:18;4.55;;;3.25;;
13592;SDS011;6867;50.998;4.250;2023-07-28T02:47:45;9.20;;;3.40;;
13592;SDS011;6867;50.998;4.250;2023-07-28T02:50:11;5.95;;;3.25;;
13592;SDS011;6867;50.998;4.250;2023-07-28T02:52:39;6.47;;;2.92;;
13592;SDS011;6867;50.998;4.250;2023-07-28T02:55:06;5.43;;;2.70;;
13592;SDS011;6867;50.998;4.250;2023-07-28T02:57:33;6.90;;;2.80;;
13592;SDS011;6867;50.998;4.250;2023-07-28T03:00:00;3.65;;;2.83;;
13592;SDS011;6867;50.998;4.250;2023-07-28T03:02:28;5.00;;;3.25;;
13592;SDS011;6867;50.998;4.250;2023-07-28T03:04:54;4.57;;;2.78;;
13592;SDS011;6867;50.998;4.250;2023-07-28T03:07:21;6.00;;;3.13;;
13592;SDS011;6867;50.998;4.250;2023-07-28T03:09:49;4.50;;;3.25;;
13592;SDS011;6867;50.998;4.250;2023-07-28T03:12:16;4.13;;;2.72;;
13592;SDS011;6867;50.998;4.250;2023-07-28T03:14:42;5.18;;;3.08;;
13592;SDS011;6867;50.998;4.250;2023-07-28T03:17:09;4.80;;;3.05;;
13592;SDS011;6867;50.998;4.250;2023-07-28T03:19:36;3.85;;;2.88;;
13592;SDS011;6867;50.998;4.250;2023-07-28T03:22:02;4.93;;;3.08;;
13592;SDS011;6867;50.998;4.250;2023-07-28T03:24:29;7.93;;;2.83;;
13592;SDS011;6867;50.998;4.250;2023-07-28T03:26:57;4.45;;;2.80;;
13592;SDS011;6867;50.998;4.250;2023-07-28T03:29:24;6.05;;;2.85;;
13592;SDS011;6867;50.998;4.250;2023-07-28T03:31:50;3.47;;;2.72;;
13592;SDS011;6867;50.998;4.250;2023-07-28T03:34:17;3.42;;;2.85;;
13592;SDS011;6867;50.998;4.250;2023-07-28T03:36:44;5.43;;;2.55;;
13592;SDS011;6867;50.998;4.250;2023-07-28T03:39:11;2.80;;;2.22;;
13592;SDS011;6867;50.998;4.250;2023-07-28T03:41:37;6.05;;;2.72;;
13592;SDS011;6867;50.998;4.250;2023-07-28T03:44:05;3.25;;;2.90;;
13592;SDS011;6867;50.998;4.250;2023-07-28T03:46:32;5.20;;;2.55;;
13592;SDS011;6867;50.998;4.250;2023-07-28T03:48:59;3.38;;;2.55;;
13592;SDS011;6867;50.998;4.250;2023-07-28T03:51:25;4.70;;;2.65;;
13592;SDS011;6867;50.998;4.250;2023-07-28T03:53:52;5.90;;;2.65;;
13592;SDS011;6867;50.998;4.250;2023-07-28T03:56:19;4.32;;;3.10;;
13592;SDS011;6867;50.998;4.250;2023-07-28T03:58:45;3.80;;;2.58;;
13592;SDS011;6867;50.998;4.250;2023-07-28T04:01:13;5.28;;;2.95;;
13592;SDS011;6867;50.998;4.250;2023-07-28T04:03:40;5.10;;;2.65;;
13592;SDS011;6867;50.998;4.250;2023-07-28T04:06:09;3.03;;;2.72;;
13592;SDS011;6867;50.998;4.250;2023-07-28T04:08:36;5.95;;;2.92;;
13592;SDS011;6867;50.998;4.250;2023-07-28T04:11:03;4.95;;;3.20;;
13592;SDS011;6867;50.998;4.250;2023-07-28T04:13:30;5.03;;;2.83;;
13592;SDS011;6867;50.998;4.250;2023-07-28T04:15:56;2.83;;;2.33;;
13592;SDS011;6867;50.998;4.250;2023-07-28T04:18:24;3.63;;;2.88;;
13592;SDS011;6867;50.998;4.250;2023-07-28T04:20:51;6.50;;;3.58;;
13592;SDS011;6867;50.998;4.250;2023-07-28T04:23:17;3.88;;;3.30;;
13592;SDS011;6867;50.998;4.250;2023-07-28T04:25:44;3.92;;;3.00;;
13592;SDS011;6867;50.998;4.250;2023-07-28T04:28:11;5.30;;;3.42;;
13592;SDS011;6867;50.998;4.250;2023-07-28T04:30:37;4.05;;;2.85;;
13592;SDS011;6867;50.998;4.250;2023-07-28T04:33:04;5.38;;;3.67;;
13592;SDS011;6867;50.998;4.250;2023-07-28T04:35:32;3.85;;;3.45;;
13592;SDS011;6867;50.998;4.250;2023-07-28T04:37:59;5.82;;;3.30;;
13592;SDS011;6867;50.998;4.250;2023-07-28T04:40:25;4.65;;;3.38;;
13592;SDS011;6867;50.998;4.250;2023-07-28T04:42:52;3.47;;;3.10;;
13592;SDS011;6867;50.998;4.250;2023-07-28T04:45:19;7.80;;;3.13;;
13592;SDS011;6867;50.998;4.250;2023-07-28T04:47:45;3.20;;;2.85;;
13592;SDS011;6867;50.998;4.250;2023-07-28T04:50:12;4.65;;;2.85;;
13592;SDS011;6867;50.998;4.250;2023-07-28T04:52:40;6.05;;;3.28;;
13592;SDS011;6867;50.998;4.250;2023-07-28T04:55:07;5.18;;;3.20;;
13592;SDS011;6867;50.998;4.250;2023-07-28T04:57:34;3.35;;;3.05;;
13592;SDS011;6867;50.998;4.250;2023-07-28T05:00:01;6.32;;;3.13;;
13592;SDS011;6867;50.998;4.250;2023-07-28T05:02:27;5.05;;;3.08;;
13592;SDS011;6867;50.998;4.250;2023-07-28T05:04:54;5.00;;;3.08;;
13592;SDS011;6867;50.998;4.250;2023-07-28T05:07:21;7.30;;;3.05;;
13592;SDS011;6867;50.998;4.250;2023-07-28T05:09:49;6.45;;;3.42;;
13592;SDS011;6867;50.998;4.250;2023-07-28T05:12:15;5.00;;;3.40;;
13592;SDS011;6867;50.998;4.250;2023-07-28T05:14:42;8.40;;;3.92;;
13592;SDS011;6867;50.998;4.250;2023-07-28T05:17:08;6.85;;;4.35;;
13592;SDS011;6867;50.998;4.250;2023-07-28T05:19:35;7.13;;;4.07;;
13592;SDS011;6867;50.998;4.250;2023-07-28T05:22:02;5.88;;;3.80;;
13592;SDS011;6867;50.998;4.250;2023-07-28T05:24:28;5.90;;;3.53;;
13592;SDS011;6867;50.998;4.250;2023-07-28T05:26:56;8.07;;;4.13;;
13592;SDS011;6867;50.998;4.250;2023-07-28T05:29:23;5.07;;;3.72;;
13592;SDS011;6867;50.998;4.250;2023-07-28T05:31:50;6.28;;;4.10;;
13592;SDS011;6867;50.998;4.250;2023-07-28T05:34:17;7.35;;;4.88;;
13592;SDS011;6867;50.998;4.250;2023-07-28T05:36:43;6.97;;;4.78;;
13592;SDS011;6867;50.998;4.250;2023-07-28T05:39:10;8.85;;;4.60;;
13592;SDS011;6867;50.998;4.250;2023-07-28T05:41:37;6.07;;;3.80;;
13592;SDS011;6867;50.998;4.250;2023-07-28T05:44:05;11.10;;;3.97;;
13592;SDS011;6867;50.998;4.250;2023-07-28T05:46:32;7.43;;;3.42;;
13592;SDS011;6867;50.998;4.250;2023-07-28T05:48:59;7.80;;;3.83;;
13592;SDS011;6867;50.998;4.250;2023-07-28T05:51:26;6.45;;;3.53;;
13592;SDS011;6867;50.998;4.250;2023-07-28T05:53:53;5.28;;;2.72;;
13592;SDS011;6867;50.998;4.250;2023-07-28T05:56:20;3.42;;;2.75;;
13592;SDS011;6867;50.998;4.250;2023-07-28T05:58:47;2.88;;;2.50;;
13592;SDS011;6867;50.998;4.250;2023-07-28T06:01:15;3.70;;;2.60;;
13592;SDS011;6867;50.998;4.250;2023-07-28T06:03:42;4.47;;;2.60;;
13592;SDS011;6867;50.998;4.250;2023-07-28T06:06:09;3.85;;;2.30;;
13592;SDS011;6867;50.998;4.250;2023-07-28T06:08:36;2.13;;;1.77;;
13592;SDS011;6867;50.998;4.250;2023-07-28T06:11:03;1.95;;;1.65;;
13592;SDS011;6867;50.998;4.250;2023-07-28T06:13:30;2.03;;;1.30;;
13592;SDS011;6867;50.998;4.250;2023-07-28T06:15:57;1.35;;;1.20;;
13592;SDS011;6867;50.998;4.250;2023-07-28T06:18:25;1.67;;;1.10;;
13592;SDS011;6867;50.998;4.250;2023-07-28T06:20:51;1.88;;;1.00;;
13592;SDS011;6867;50.998;4.250;2023-07-28T06:23:18;1.80;;;1.10;;
13592;SDS011;6867;50.998;4.250;2023-07-28T06:25:45;1.25;;;1.10;;
13592;SDS011;6867;50.998;4.250;2023-07-28T06:28:11;1.20;;;1.10;;
13592;SDS011;6867;50.998;4.250;2023-07-28T06:30:39;2.90;;;1.00;;
13592;SDS011;6867;50.998;4.250;2023-07-28T06:33:06;1.70;;;1.00;;
13592;SDS011;6867;50.998;4.250;2023-07-28T06:35:34;1.02;;;0.93;;
13592;SDS011;6867;50.998;4.250;2023-07-28T06:38:01;2.17;;;1.10;;
13592;SDS011;6867;50.998;4.250;2023-07-28T06:40:28;1.33;;;1.00;;
13592;SDS011;6867;50.998;4.250;2023-07-28T06:42:55;1.60;;;1.13;;
13592;SDS011;6867;50.998;4.250;2023-07-28T06:45:21;1.30;;;1.00;;
13592;SDS011;6867;50.998;4.250;2023-07-28T06:47:48;1.40;;;1.02;;
13592;SDS011;6867;50.998;4.250;2023-07-28T06:50:16;0.70;;;0.70;;
13592;SDS011;6867;50.998;4.250;2023-07-28T06:52:44;1.00;;;0.90;;
13592;SDS011;6867;50.998;4.250;2023-07-28T06:55:13;1.83;;;0.63;;
13592;SDS011;6867;50.998;4.250;2023-07-28T06:57:39;1.27;;;1.17;;
13592;SDS011;6867;50.998;4.250;2023-07-28T07:00:06;0.80;;;0.80;;
13592;SDS011;6867;50.998;4.250;2023-07-28T07:02:34;1.23;;;0.90;;
13592;SDS011;6867;50.998;4.250;2023-07-28T07:05:01;0.75;;;0.75;;
13592;SDS011;6867;50.998;4.250;2023-07-28T07:07:28;0.95;;;0.90;;
13592;SDS011;6867;50.998;4.250;2023-07-28T07:09:56;0.80;;;0.80;;
13592;SDS011;6867;50.998;4.250;2023-07-28T07:12:23;0.82;;;0.77;;
13592;SDS011;6867;50.998;4.250;2023-07-28T07:14:49;0.98;;;0.80;;
13592;SDS011;6867;50.998;4.250;2023-07-28T07:17:16;1.80;;;1.00;;
13592;SDS011;6867;50.998;4.250;2023-07-28T07:19:43;0.82;;;0.60;;
13592;SDS011;6867;50.998;4.250;2023-07-28T07:22:10;1.55;;;0.93;;
13592;SDS011;6867;50.998;4.250;2023-07-28T07:24:36;1.05;;;0.80;;
13592;SDS011;6867;50.998;4.250;2023-07-28T07:27:05;0.63;;;0.60;;
13592;SDS011;6867;50.998;4.250;2023-07-28T07:29:35;2.75;;;0.73;;
13592;SDS011;6867;50.998;4.250;2023-07-28T07:32:03;1.52;;;0.68;;
13592;SDS011;6867;50.998;4.250;2023-07-28T07:34:30;0.60;;;0.60;;
13592;SDS011;6867;50.998;4.250;2023-07-28T07:36:57;1.65;;;0.80;;
13592;SDS011;6867;50.998;4.250;2023-07-28T07:39:24;0.90;;;0.80;;
13592;SDS011;6867;50.998;4.250;2023-07-28T07:41:51;0.98;;;0.90;;
13592;SDS011;6867;50.998;4.250;2023-07-28T07:44:19;1.02;;;0.90;;
13592;SDS011;6867;50.998;4.250;2023-07-28T07:46:45;2.05;;;0.88;;
13592;SDS011;6867;50.998;4.250;2023-07-28T07:49:12;1.60;;;0.93;;
13592;SDS011;6867;50.998;4.250;2023-07-28T07:51:39;3.55;;;1.13;;
13592;SDS011;6867;50.998;4.250;2023-07-28T07:54:05;2.90;;;1.02;;
13592;SDS011;6867;50.998;4.250;2023-07-28T07:56:32;2.15;;;1.20;;
13592;SDS011;6867;50.998;4.250;2023-07-28T07:58:59;1.10;;;0.90;;
13592;SDS011;6867;50.998;4.250;2023-07-28T08:01:27;1.10;;;0.95;;
13592;SDS011;6867;50.998;4.250;2023-07-28T08:03:54;1.08;;;0.98;;
13592;SDS011;6867;50.998;4.250;2023-07-28T08:06:20;1.08;;;0.98;;
13592;SDS011;6867;50.998;4.250;2023-07-28T08:08:47;3.30;;;1.00;;
13592;SDS011;6867;50.998;4.250;2023-07-28T08:11:15;1.10;;;1.00;;
13592;SDS011;6867;50.998;4.250;2023-07-28T08:13:42;1.10;;;1.00;;
13592;SDS011;6867;50.998;4.250;2023-07-28T08:16:10;2.08;;;1.02;;
13592;SDS011;6867;50.998;4.250;2023-07-28T08:18:38;1.23;;;1.10;;
13592;SDS011;6867;50.998;4.250;2023-07-28T08:21:05;2.08;;;1.30;;
13592;SDS011;6867;50.998;4.250;2023-07-28T08:23:31;3.45;;;0.82;;
13592;SDS011;6867;50.998;4.250;2023-07-28T08:25:58;2.75;;;1.00;;
13592;SDS011;6867;50.998;4.250;2023-07-28T08:28:25;2.47;;;1.00;;
13592;SDS011;6867;50.998;4.250;2023-07-28T08:30:54;1.20;;;1.10;;
13592;SDS011;6867;50.998;4.250;2023-07-28T08:33:23;0.90;;;0.70;;
13592;SDS011;6867;50.998;4.250;2023-07-28T08:35:51;2.30;;;1.30;;
13592;SDS011;6867;50.998;4.250;2023-07-28T08:38:17;1.23;;;0.82;;
13592;SDS011;6867;50.998;4.250;2023-07-28T08:40:44;0.82;;;0.82;;
13592;SDS011;6867;50.998;4.250;2023-07-28T08:43:11;1.48;;;1.00;;
13592;SDS011;6867;50.998;4.250;2023-07-28T08:45:38;0.95;;;0.95;;
13592;SDS011;6867;50.998;4.250;2023-07-28T08:48:05;1.02;;;0.90;;
13592;SDS011;6867;50.998;4.250;2023-07-28T08:50:32;1.52;;;0.90;;
13592;SDS011;6867;50.998;4.250;2023-07-28T08:53:00;0.82;;;0.82;;
13592;SDS011;6867;50.998;4.250;2023-07-28T08:55:27;0.98;;;0.93;;
13592;SDS011;6867;50.998;4.250;2023-07-28T08:57:53;1.15;;;0.82;;
13592;SDS011;6867;50.998;4.250;2023-07-28T09:00:21;1.00;;;1.00;;
13592;SDS011;6867;50.998;4.250;2023-07-28T09:02:50;2.05;;;0.90;;
13592;SDS011;6867;50.998;4.250;2023-07-28T09:05:17;3.83;;;0.85;;
13592;SDS011;6867;50.998;4.250;2023-07-28T09:07:45;1.52;;;0.90;;
13592;SDS011;6867;50.998;4.250;2023-07-28T09:10:13;1.45;;;1.02;;
13592;SDS011;6867;50.998;4.250;2023-07-28T09:12:47;1.45;;;0.93;;
13592;SDS011;6867;50.998;4.250;2023-07-28T09:15:14;1.52;;;0.90;;
13592;SDS011;6867;50.998;4.250;2023-07-28T09:17:42;1.58;;;0.90;;
13592;SDS011;6867;50.998;4.250;2023-07-28T09:20:12;0.80;;;0.80;;
13592;SDS011;6867;50.998;4.250;2023-07-28T09:22:40;4.10;;;0.93;;
13592;SDS011;6867;50.998;4.250;2023-07-28T09:25:11;0.80;;;0.60;;
13592;SDS011;6867;50.998;4.250;2023-07-28T09:27:40;0.98;;;0.73;;
13592;SDS011;6867;50.998;4.250;2023-07-28T09:30:07;0.90;;;0.68;;
13592;SDS011;6867;50.998;4.250;2023-07-28T09:32:34;1.17;;;0.73;;
13592;SDS011;6867;50.998;4.250;2023-07-28T09:35:06;1.23;;;0.80;;
13592;SDS011;6867;50.998;4.250;2023-07-28T09:37:36;0.70;;;0.70;;
13592;SDS011;6867;50.998;4.250;2023-07-28T09:40:04;0.88;;;0.75;;
13592;SDS011;6867;50.998;4.250;2023-07-28T09:42:36;1.23;;;0.70;;
13592;SDS011;6867;50.998;4.250;2023-07-28T09:45:06;1.75;;;0.55;;
13592;SDS011;6867;50.998;4.250;2023-07-28T09:47:33;3.65;;;0.60;;
13592;SDS011;6867;50.998;4.250;2023-07-28T09:50:01;2.38;;;0.93;;
13592;SDS011;6867;50.998;4.250;2023-07-28T09:52:30;0.90;;;0.70;;
13592;SDS011;6867;50.998;4.250;2023-07-28T09:54:59;0.63;;;0.60;;
13592;SDS011;6867;50.998;4.250;2023-07-28T09:57:28;1.20;;;0.65;;
13592;SDS011;6867;50.998;4.250;2023-07-28T09:59:59;1.33;;;0.70;;
13592;SDS011;6867;50.998;4.250;2023-07-28T10:02:29;0.50;;;0.50;;
13592;SDS011;6867;50.998;4.250;2023-07-28T10:04:56;1.27;;;0.90;;
13592;SDS011;6867;50.998;4.250;2023-07-28T10:07:24;1.08;;;0.50;;
13592;SDS011;6867;50.998;4.250;2023-07-28T10:09:51;1.25;;;0.68;;
13592;SDS011;6867;50.998;4.250;2023-07-28T10:12:18;2.05;;;0.85;;
13592;SDS011;6867;50.998;4.250;2023-07-28T10:14:46;1.38;;;0.70;;
13592;SDS011;6867;50.998;4.250;2023-07-28T10:17:15;1.40;;;0.90;;
13592;SDS011;6867;50.998;4.250;2023-07-28T10:19:43;0.88;;;0.50;;
13592;SDS011;6867;50.998;4.250;2023-07-28T10:22:10;0.93;;;0.70;;
13592;SDS011;6867;50.998;4.250;2023-07-28T10:24:50;2.45;;;0.70;;
13592;SDS011;6867;50.998;4.250;2023-07-28T10:27:30;0.70;;;0.70;;
13592;SDS011;6867;50.998;4.250;2023-07-28T10:30:01;1.80;;;0.63;;
13592;SDS011;6867;50.998;4.250;2023-07-28T10:32:33;2.75;;;1.25;;
13592;SDS011;6867;50.998;4.250;2023-07-28T10:37:36;0.70;;;0.70;;
13592;SDS011;6867;50.998;4.250;2023-07-28T10:40:22;2.00;;;1.00;;
13592;SDS011;6867;50.998;4.250;2023-07-28T10:42:50;1.42;;;1.00;;
13592;SDS011;6867;50.998;4.250;2023-07-28T10:45:18;0.85;;;0.70;;
13592;SDS011;6867;50.998;4.250;2023-07-28T10:47:45;1.77;;;0.95;;
13592;SDS011;6867;50.998;4.250;2023-07-28T10:50:14;2.35;;;1.05;;
13592;SDS011;6867;50.998;4.250;2023-07-28T10:52:41;1.90;;;0.95;;
13592;SDS011;6867;50.998;4.250;2023-07-28T10:55:11;1.02;;;0.50;;
13592;SDS011;6867;50.998;4.250;2023-07-28T10:57:40;1.70;;;0.60;;
13592;SDS011;6867;50.998;4.250;2023-07-28T11:00:07;1.35;;;0.70;;
13592;SDS011;6867;50.998;4.250;2023-07-28T11:02:37;0.85;;;0.60;;
13592;SDS011;6867;50.998;4.250;2023-07-28T11:05:09;1.15;;;0.80;;
13592;SDS011;6867;50.998;4.250;2023-07-28T11:07:40;2.72;;;0.70;;
13592;SDS011;6867;50.998;4.250;2023-07-28T11:10:08;2.88;;;0.70;;
13592;SDS011;6867;50.998;4.250;2023-07-28T11:12:38;0.80;;;0.70;;
13592;SDS011;6867;50.998;4.250;2023-07-28T11:15:07;2.30;;;0.70;;
13592;SDS011;6867;50.998;4.250;2023-07-28T11:17:36;0.75;;;0.60;;
13592;SDS011;6867;50.998;4.250;2023-07-28T11:20:04;1.00;;;0.90;;
13592;SDS011;6867;50.998;4.250;2023-07-28T11:22:35;1.23;;;0.82;;
13592;SDS011;6867;50.998;4.250;2023-07-28T11:25:06;1.35;;;0.73;;
13592;SDS011;6867;50.998;4.250;2023-07-28T11:27:35;0.70;;;0.70;;
13592;SDS011;6867;50.998;4.250;2023-07-28T11:30:03;1.02;;;0.93;;
13592;SDS011;6867;50.998;4.250;2023-07-28T11:32:30;0.70;;;0.70;;
13592;SDS011;6867;50.998;4.250;2023-07-28T11:35:02;1.00;;;0.90;;
13592;SDS011;6867;50.998;4.250;2023-07-28T11:37:30;1.58;;;0.80;;
13592;SDS011;6867;50.998;4.250;2023-07-28T11:39:58;0.93;;;0.75;;
13592;SDS011;6867;50.998;4.250;2023-07-28T11:42:27;0.82;;;0.80;;
13592;SDS011;6867;50.998;4.250;2023-07-28T11:44:55;1.52;;;0.80;;
13592;SDS011;6867;50.998;4.250;2023-07-28T11:47:22;0.80;;;0.80;;
13592;SDS011;6867;50.998;4.250;2023-07-28T11:49:49;1.23;;;0.82;;
13592;SDS011;6867;50.998;4.250;2023-07-28T11:52:16;1.50;;;0.82;;
13592;SDS011;6867;50.998;4.250;2023-07-28T11:54:43;1.42;;;0.90;;
13592;SDS011;6867;50.998;4.250;2023-07-28T11:57:10;1.05;;;0.80;;
13592;SDS011;6867;50.998;4.250;2023-07-28T11:59:40;1.92;;;0.90;;
13592;SDS011;6867;50.998;4.250;2023-07-28T12:02:07;1.55;;;0.90;;
13592;SDS011;6867;50.998;4.250;2023-07-28T12:04:35;1.45;;;0.98;;
13592;SDS011;6867;50.998;4.250;2023-07-28T12:07:03;2.53;;;1.00;;
13592;SDS011;6867;50.998;4.250;2023-07-28T12:09:31;1.35;;;0.90;;
13592;SDS011;6867;50.998;4.250;2023-07-28T12:11:58;1.63;;;0.90;;
13592;SDS011;6867;50.998;4.250;2023-07-28T12:14:32;3.08;;;1.20;;
13592;SDS011;6867;50.998;4.250;2023-07-28T12:17:00;2.72;;;1.02;;
13592;SDS011;6867;50.998;4.250;2023-07-28T12:19:27;1.05;;;0.95;;
13592;SDS011;6867;50.998;4.250;2023-07-28T12:21:54;1.60;;;0.80;;
13592;SDS011;6867;50.998;4.250;2023-07-28T12:24:21;0.80;;;0.80;;
13592;SDS011;6867;50.998;4.250;2023-07-28T12:26:50;0.82;;;0.82;;
13592;SDS011;6867;50.998;4.250;2023-07-28T12:29:17;2.75;;;1.00;;
13592;SDS011;6867;50.998;4.250;2023-07-28T12:31:43;1.50;;;1.08;;
13592;SDS011;6867;50.998;4.250;2023-07-28T12:34:11;1.80;;;1.00;;
13592;SDS011;6867;50.998;4.250;2023-07-28T12:36:38;1.42;;;0.90;;
13592;SDS011;6867;50.998;4.250;2023-07-28T12:39:05;2.25;;;1.13;;
13592;SDS011;6867;50.998;4.250;2023-07-28T12:41:32;1.17;;;0.80;;
13592;SDS011;6867;50.998;4.250;2023-07-28T12:43:59;2.20;;;1.05;;
13592;SDS011;6867;50.998;4.250;2023-07-28T12:46:26;1.13;;;0.90;;
13592;SDS011;6867;50.998;4.250;2023-07-28T12:48:52;1.23;;;0.95;;
13592;SDS011;6867;50.998;4.250;2023-07-28T12:51:21;1.50;;;1.08;;
13592;SDS011;6867;50.998;4.250;2023-07-28T12:53:48;2.05;;;0.95;;
13592;SDS011;6867;50.998;4.250;2023-07-28T12:56:14;2.78;;;1.08;;
13592;SDS011;6867;50.998;4.250;2023-07-28T12:58:41;1.52;;;0.90;;
13592;SDS011;6867;50.998;4.250;2023-07-28T13:01:08;1.30;;;1.20;;
13592;SDS011;6867;50.998;4.250;2023-07-28T13:03:37;6.88;;;1.10;;
13592;SDS011;6867;50.998;4.250;2023-07-28T13:06:04;1.33;;;1.23;;
13592;SDS011;6867;50.998;4.250;2023-07-28T13:08:32;0.82;;;0.73;;
13592;SDS011;6867;50.998;4.250;2023-07-28T13:10:59;2.45;;;0.93;;
13592;SDS011;6867;50.998;4.250;2023-07-28T13:13:25;5.43;;;1.20;;
13592;SDS011;6867;50.998;4.250;2023-07-28T13:15:54;1.33;;;1.00;;
13592;SDS011;6867;50.998;4.250;2023-07-28T13:18:21;1.15;;;0.70;;
13592;SDS011;6867;50.998;4.250;2023-07-28T13:20:48;2.08;;;1.13;;
13592;SDS011;6867;50.998;4.250;2023-07-28T13:23:15;1.27;;;1.00;;
13592;SDS011;6867;50.998;4.250;2023-07-28T13:25:43;1.08;;;0.90;;
13592;SDS011;6867;50.998;4.250;2023-07-28T13:28:09;1.20;;;1.10;;
13592;SDS011;6867;50.998;4.250;2023-07-28T13:30:36;1.48;;;0.90;;
13592;SDS011;6867;50.998;4.250;2023-07-28T13:33:03;1.77;;;0.90;;
13592;SDS011;6867;50.998;4.250;2023-07-28T13:35:30;1.00;;;0.80;;
13592;SDS011;6867;50.998;4.250;2023-07-28T13:37:57;1.02;;;0.93;;
13592;SDS011;6867;50.998;4.250;2023-07-28T13:40:23;1.35;;;0.93;;
13592;SDS011;6867;50.998;4.250;2023-07-28T13:42:51;2.30;;;1.02;;
13592;SDS011;6867;50.998;4.250;2023-07-28T13:45:18;0.95;;;0.85;;
13592;SDS011;6867;50.998;4.250;2023-07-28T13:47:45;2.33;;;1.05;;
13592;SDS011;6867;50.998;4.250;2023-07-28T13:50:11;1.65;;;1.23;;
13592;SDS011;6867;50.998;4.250;2023-07-28T13:52:38;1.10;;;0.80;;
13592;SDS011;6867;50.998;4.250;2023-07-28T13:55:05;1.50;;;1.13;;
13592;SDS011;6867;50.998;4.250;2023-07-28T13:57:32;3.75;;;1.40;;
13592;SDS011;6867;50.998;4.250;2023-07-28T14:00:00;1.50;;;1.20;;
13592;SDS011;6867;50.998;4.250;2023-07-28T14:02:27;3.20;;;1.00;;
13592;SDS011;6867;50.998;4.250;2023-07-28T14:04:54;0.90;;;0.80;;
13592;SDS011;6867;50.998;4.250;2023-07-28T14:07:21;1.17;;;0.90;;
13592;SDS011;6867;50.998;4.250;2023-07-28T14:09:47;2.67;;;1.10;;
13592;SDS011;6867;50.998;4.250;2023-07-28T14:12:14;0.98;;;0.90;;
13592;SDS011;6867;50.998;4.250;2023-07-28T14:14:40;1.20;;;1.10;;
13592;SDS011;6867;50.998;4.250;2023-07-28T14:17:08;3.55;;;1.40;;
13592;SDS011;6867;50.998;4.250;2023-07-28T14:19:37;1.77;;;1.00;;
13592;SDS011;6867;50.998;4.250;2023-07-28T14:22:05;1.05;;;0.95;;
13592;SDS011;6867;50.998;4.250;2023-07-28T14:24:32;1.27;;;1.08;;
13592;SDS011;6867;50.998;4.250;2023-07-28T14:26:58;1.50;;;1.15;;
13592;SDS011;6867;50.998;4.250;2023-07-28T14:29:25;1.70;;;1.20;;
13592;SDS011;6867;50.998;4.250;2023-07-28T14:31:52;0.90;;;0.88;;
13592;SDS011;6867;50.998;4.250;2023-07-28T14:34:21;2.38;;;1.13;;
13592;SDS011;6867;50.998;4.250;2023-07-28T14:36:47;2.03;;;1.02;;
13592;SDS011;6867;50.998;4.250;2023-07-28T14:39:14;1.00;;;0.90;;
13592;SDS011;6867;50.998;4.250;2023-07-28T14:41:41;1.50;;;1.13;;
13592;SDS011;6867;50.998;4.250;2023-07-28T14:44:08;1.20;;;1.10;;
13592;SDS011;6867;50.998;4.250;2023-07-28T14:46:34;2.65;;;1.30;;
13592;SDS011;6867;50.998;4.250;2023-07-28T14:49:01;1.85;;;1.23;;
13592;SDS011;6867;50.998;4.250;2023-07-28T14:51:30;3.35;;;1.25;;
13592;SDS011;6867;50.998;4.250;2023-07-28T14:53:56;1.13;;;1.00;;
13592;SDS011;6867;50.998;4.250;2023-07-28T14:56:23;1.83;;;1.20;;
13592;SDS011;6867;50.998;4.250;2023-07-28T14:58:50;4.43;;;1.42;;
13592;SDS011;6867;50.998;4.250;2023-07-28T15:01:18;1.92;;;1.00;;
13592;SDS011;6867;50.998;4.250;2023-07-28T15:03:45;3.05;;;1.30;;